Terminal Aerodrome Forecast
Issued by NWS Memphis, TN

Home | Current Version | Previous Version | Text Only | Print | Product List | Glossary On
Versions: 1 2 3 4 5 6 7 8 9 10 11 12 13 14 15 16
000
FTUS44 KMEG 272320
TAFMKL
TAF
KMKL 272320Z 2800/2824 00000KT P6SM SCT100
     FM280600 00000KT 5SM BR SKC
      TEMPO 2808/2812 2SM BR
     FM281300 10005KT P6SM BKN070=

USA.gov is the U.S. government's official web portal to all federal, state and local government web resources and services.